KMPV/MPV METAR and TAF weather

Enter ICAO airport designator
Station Type Date Time Source
KMPV METAR 2019/08/20 08:51 UTC NOAA

KMPV 200851Z AUTO 27003KT 10SM CLR 16/13 A3010 RMK AO2 SLP190 T01610133 53012


Station Type Date Time Source
KMPV Decoded METAR 2019/08/20 08:51 UTC NOAA

KNAPP STATE AIRPORT, VT, United States (KMPV) 44-12N 072-34W 343M
Aug 20, 2019 - 04:51 AM EDT / 2019.08.20 0851 UTC
Wind: from the W (270 degrees) at 3 MPH (3 KT):0
Visibility: 10 mile(s):0
Sky conditions: clear
Temperature: 61.0 F (16.1 C)
Dew Point: 55.9 F (13.3 C)
Relative Humidity: 83%
Pressure (altimeter): 30.1 in. Hg (1019 hPa)
Pressure tendency: 0.04 inches (1.2 hPa) higher than three hours ago
ob: KMPV 200851Z AUTO 27003KT 10SM CLR 16/13 A3010 RMK AO2 SLP190 T01610133 53012
cycle: 9

Station Type Date Time Source
KMPV TAF 2019/08/20 06:36 UTC NOAA

TAF KMPV 200533Z 2006/2106 VRB04KT P6SM SKC
FM200830 00000KT 3SM BR SCT001
TEMPO 2009/2012 1/4SM FG OVC001
FM201230 28003KT P6SM SKC

Example: see airport list